Haines City, Florida
Current Conditions -  °F | °C
As of 11:53 AM on Wednesday 26 Nov 2014 (Local Time) from KGIF Reporting Station
Broken Clouds Broken Clouds  
Wind Chill: 54°   Ceiling: 11000
Heat Index: 54°   Visibility: 10mi
Dew Point: 51°   Wind: 10mph
Humidity: 90%   Direction: 300°WNW
Pressure: 30.16"   Gusts: NA
Location:  28.11°N, 81.63°W
Report Text: KGIF 261653Z AUTO 30009KT 10SM FEW046 BKN110 12/11 A3016 RMK AO2 RAE42 SLP213 P0001 T01220106
Loading
Personal Weather Stations






























Interactive Weather Map New forecast layout! Learn more

10-Day Weather Forecast

Advertisements
Track Severe Weather on mobile